sensor_id;sensor_type;location;lat;lon;timestamp;pressure;altitude;pressure_sealevel;temperature;humidity
70343;BME280;57767;42.068;24.752;2023-04-23T00:01:02;98913.41;;;12.81;72.04
70343;BME280;57767;42.068;24.752;2023-04-23T00:02:06;98919.00;;;12.73;72.54
70343;BME280;57767;42.068;24.752;2023-04-23T00:03:09;98918.94;;;12.61;73.08
70343;BME280;57767;42.068;24.752;2023-04-23T00:04:14;98908.88;;;12.45;73.32
70343;BME280;57767;42.068;24.752;2023-04-23T00:05:19;98914.25;;;12.38;73.86
70343;BME280;57767;42.068;24.752;2023-04-23T00:06:23;98915.72;;;12.34;74.28
70343;BME280;57767;42.068;24.752;2023-04-23T00:07:27;98919.25;;;12.28;74.44
70343;BME280;57767;42.068;24.752;2023-04-23T00:08:31;98913.78;;;12.23;75.15
70343;BME280;57767;42.068;24.752;2023-04-23T00:09:34;98919.50;;;12.20;75.47
70343;BME280;57767;42.068;24.752;2023-04-23T00:10:36;98906.97;;;12.09;75.22
70343;BME280;57767;42.068;24.752;2023-04-23T00:11:38;98921.63;;;12.11;75.31
70343;BME280;57767;42.068;24.752;2023-04-23T00:12:40;98915.34;;;12.06;76.04
70343;BME280;57767;42.068;24.752;2023-04-23T00:13:43;98919.59;;;12.07;76.04
70343;BME280;57767;42.068;24.752;2023-04-23T00:14:45;98902.00;;;11.94;76.01
70343;BME280;57767;42.068;24.752;2023-04-23T00:15:47;98915.34;;;12.06;76.06
70343;BME280;57767;42.068;24.752;2023-04-23T00:16:49;98918.44;;;12.03;75.88
70343;BME280;57767;42.068;24.752;2023-04-23T00:17:51;98920.03;;;12.04;75.97
70343;BME280;57767;42.068;24.752;2023-04-23T00:18:53;98913.19;;;11.96;76.53
70343;BME280;57767;42.068;24.752;2023-04-23T00:19:54;98906.53;;;11.87;76.99
70343;BME280;57767;42.068;24.752;2023-04-23T00:20:56;98915.09;;;11.82;77.01
70343;BME280;57767;42.068;24.752;2023-04-23T00:21:58;98920.63;;;11.74;77.07
70343;BME280;57767;42.068;24.752;2023-04-23T00:23:00;98920.59;;;11.81;77.62
70343;BME280;57767;42.068;24.752;2023-04-23T00:24:02;98922.66;;;11.79;77.09
70343;BME280;57767;42.068;24.752;2023-04-23T00:25:04;98923.91;;;11.76;77.34
70343;BME280;57767;42.068;24.752;2023-04-23T00:26:06;98921.44;;;11.75;77.84
70343;BME280;57767;42.068;24.752;2023-04-23T00:27:08;98915.75;;;11.71;77.72
70343;BME280;57767;42.068;24.752;2023-04-23T00:28:10;98917.81;;;11.69;78.11
70343;BME280;57767;42.068;24.752;2023-04-23T00:29:11;98925.94;;;11.74;77.89
70343;BME280;57767;42.068;24.752;2023-04-23T00:30:13;98916.84;;;11.64;78.52
70343;BME280;57767;42.068;24.752;2023-04-23T00:31:15;98926.75;;;11.68;78.16
70343;BME280;57767;42.068;24.752;2023-04-23T00:32:17;98908.50;;;11.60;78.63
70343;BME280;57767;42.068;24.752;2023-04-23T00:33:19;98923.53;;;11.66;78.62
70343;BME280;57767;42.068;24.752;2023-04-23T00:34:21;98911.91;;;11.67;78.48
70343;BME280;57767;42.068;24.752;2023-04-23T00:35:22;98923.50;;;11.73;78.08
70343;BME280;57767;42.068;24.752;2023-04-23T00:36:24;98915.56;;;11.73;78.39
70343;BME280;57767;42.068;24.752;2023-04-23T00:37:26;98920.25;;;11.71;78.30
70343;BME280;57767;42.068;24.752;2023-04-23T00:38:28;98892.31;;;11.50;77.56
70343;BME280;57767;42.068;24.752;2023-04-23T00:39:30;98928.56;;;11.74;77.39
70343;BME280;57767;42.068;24.752;2023-04-23T00:40:32;98923.91;;;11.76;77.08
70343;BME280;57767;42.068;24.752;2023-04-23T00:41:33;98923.91;;;11.76;77.18
70343;BME280;57767;42.068;24.752;2023-04-23T00:42:36;98930.22;;;11.75;76.77
70343;BME280;57767;42.068;24.752;2023-04-23T00:43:39;98925.31;;;11.72;76.42
70343;BME280;57767;42.068;24.752;2023-04-23T00:44:41;98928.56;;;11.74;76.11
70343;BME280;57767;42.068;24.752;2023-04-23T00:45:43;98921.88;;;11.72;75.74
70343;BME280;57767;42.068;24.752;2023-04-23T00:46:45;98928.41;;;11.76;76.02
70343;BME280;57767;42.068;24.752;2023-04-23T00:47:48;98925.53;;;11.77;75.68
70343;BME280;57767;42.068;24.752;2023-04-23T00:48:51;98915.97;;;11.70;75.61
70343;BME280;57767;42.068;24.752;2023-04-23T00:49:53;98927.38;;;11.77;76.04
70343;BME280;57767;42.068;24.752;2023-04-23T00:51:02;98932.88;;;11.75;75.70
70343;BME280;57767;42.068;24.752;2023-04-23T00:52:04;98929.81;;;11.72;75.81
70343;BME280;57767;42.068;24.752;2023-04-23T00:53:07;98924.53;;;11.65;75.45
70343;BME280;57767;42.068;24.752;2023-04-23T00:54:09;98931.63;;;11.71;74.88
70343;BME280;57767;42.068;24.752;2023-04-23T00:55:11;98932.47;;;11.65;75.45
70343;BME280;57767;42.068;24.752;2023-04-23T00:56:13;98930.69;;;11.59;75.59
70343;BME280;57767;42.068;24.752;2023-04-23T00:57:15;98933.13;;;11.61;75.33
70343;BME280;57767;42.068;24.752;2023-04-23T00:58:17;98936.97;;;11.65;74.99
70343;BME280;57767;42.068;24.752;2023-04-23T00:59:19;98928.44;;;11.63;75.41
70343;BME280;57767;42.068;24.752;2023-04-23T01:00:21;98936.75;;;11.66;75.09
70343;BME280;57767;42.068;24.752;2023-04-23T01:01:24;98930.47;;;11.61;74.86
70343;BME280;57767;42.068;24.752;2023-04-23T01:02:28;98937.75;;;11.65;74.67
70343;BME280;57767;42.068;24.752;2023-04-23T01:03:34;98932.47;;;11.65;74.50
70343;BME280;57767;42.068;24.752;2023-04-23T01:04:37;98936.97;;;11.65;74.73
70343;BME280;57767;42.068;24.752;2023-04-23T01:05:40;98929.81;;;11.65;74.44
70343;BME280;57767;42.068;24.752;2023-04-23T01:06:44;98931.50;;;11.60;74.30
70343;BME280;57767;42.068;24.752;2023-04-23T01:07:47;98930.47;;;11.61;73.87
70343;BME280;57767;42.068;24.752;2023-04-23T01:08:49;98927.09;;;11.47;73.90
70343;BME280;57767;42.068;24.752;2023-04-23T01:09:51;98935.03;;;11.40;74.10
70343;BME280;57767;42.068;24.752;2023-04-23T01:10:53;98930.38;;;11.42;73.61
70343;BME280;57767;42.068;24.752;2023-04-23T01:11:55;98929.41;;;11.37;73.97
70343;BME280;57767;42.068;24.752;2023-04-23T01:12:58;98930.22;;;11.37;74.48
70343;BME280;57767;42.068;24.752;2023-04-23T01:14:01;98933.88;;;11.36;74.10
70343;BME280;57767;42.068;24.752;2023-04-23T01:15:04;98924.94;;;11.31;74.02
70343;BME280;57767;42.068;24.752;2023-04-23T01:16:06;98922.75;;;11.21;74.23
70343;BME280;57767;42.068;24.752;2023-04-23T01:17:09;98928.50;;;11.11;75.01
70343;BME280;57767;42.068;24.752;2023-04-23T01:18:13;98926.88;;;11.04;75.36
70343;BME280;57767;42.068;24.752;2023-04-23T01:19:15;98931.75;;;11.07;74.55
70343;BME280;57767;42.068;24.752;2023-04-23T01:20:17;98925.09;;;10.98;75.05
70343;BME280;57767;42.068;24.752;2023-04-23T01:21:18;98928.34;;;10.93;75.46
70343;BME280;57767;42.068;24.752;2023-04-23T01:22:21;98922.06;;;10.81;75.16
70343;BME280;57767;42.068;24.752;2023-04-23T01:23:23;98925.28;;;10.90;75.13
70343;BME280;57767;42.068;24.752;2023-04-23T01:24:24;98927.16;;;10.83;75.63
70343;BME280;57767;42.068;24.752;2023-04-23T01:25:26;98927.97;;;10.83;75.82
70343;BME280;57767;42.068;24.752;2023-04-23T01:26:28;98930.59;;;10.83;76.00
70343;BME280;57767;42.068;24.752;2023-04-23T01:27:31;98932.25;;;10.71;76.74
70343;BME280;57767;42.068;24.752;2023-04-23T01:28:33;98932.25;;;10.71;76.58
70343;BME280;57767;42.068;24.752;2023-04-23T01:29:37;98921.09;;;10.69;77.08
70343;BME280;57767;42.068;24.752;2023-04-23T01:30:41;98934.69;;;10.72;76.53
70343;BME280;57767;42.068;24.752;2023-04-23T01:31:43;98922.72;;;10.70;76.59
70343;BME280;57767;42.068;24.752;2023-04-23T01:32:46;98934.91;;;10.71;77.33
70343;BME280;57767;42.068;24.752;2023-04-23T01:33:49;98926.16;;;10.70;77.30
70343;BME280;57767;42.068;24.752;2023-04-23T01:34:53;98929.63;;;10.64;77.60
70343;BME280;57767;42.068;24.752;2023-04-23T01:35:57;98927.63;;;10.60;78.06
70343;BME280;57767;42.068;24.752;2023-04-23T01:37:01;98932.50;;;10.63;77.30
70343;BME280;57767;42.068;24.752;2023-04-23T01:38:04;98933.50;;;10.62;77.69
70343;BME280;57767;42.068;24.752;2023-04-23T01:39:08;98920.94;;;10.51;77.82
70343;BME280;57767;42.068;24.752;2023-04-23T01:40:10;98928.44;;;10.47;77.92
70343;BME280;57767;42.068;24.752;2023-04-23T01:41:12;98939.41;;;10.44;78.12
70343;BME280;57767;42.068;24.752;2023-04-23T01:42:15;98933.53;;;10.35;79.15
70343;BME280;57767;42.068;24.752;2023-04-23T01:43:17;98925.00;;;10.33;79.26
70343;BME280;57767;42.068;24.752;2023-04-23T01:44:19;98937.19;;;10.34;79.25
70343;BME280;57767;42.068;24.752;2023-04-23T01:45:21;98913.44;;;10.28;79.72
70343;BME280;57767;42.068;24.752;2023-04-23T01:46:23;98936.34;;;10.40;79.59
70343;BME280;57767;42.068;24.752;2023-04-23T01:47:26;98931.28;;;10.39;79.91
70343;BME280;57767;42.068;24.752;2023-04-23T01:48:28;98935.97;;;10.44;79.80
70343;BME280;57767;42.068;24.752;2023-04-23T01:49:30;98928.63;;;10.52;79.76
70343;BME280;57767;42.068;24.752;2023-04-23T01:50:32;98928.63;;;10.59;79.71
70343;BME280;57767;42.068;24.752;2023-04-23T01:51:34;98929.84;;;10.63;79.11
70343;BME280;57767;42.068;24.752;2023-04-23T01:52:36;98930.06;;;10.55;80.16
70343;BME280;57767;42.068;24.752;2023-04-23T01:53:37;98926.41;;;10.62;80.83
70343;BME280;57767;42.068;24.752;2023-04-23T01:54:39;98933.31;;;10.63;80.66
70343;BME280;57767;42.068;24.752;2023-04-23T01:55:44;98922.34;;;10.60;79.80
70343;BME280;57767;42.068;24.752;2023-04-23T01:56:47;98924.78;;;10.55;80.44
70343;BME280;57767;42.068;24.752;2023-04-23T01:57:49;98927.63;;;10.47;81.18
70343;BME280;57767;42.068;24.752;2023-04-23T01:58:51;98930.06;;;10.41;81.24
70343;BME280;57767;42.068;24.752;2023-04-23T02:00:04;98931.88;;;10.54;81.12
70343;BME280;57767;42.068;24.752;2023-04-23T02:01:09;98933.50;;;10.55;80.35
70343;BME280;57767;42.068;24.752;2023-04-23T02:02:11;98933.31;;;10.57;80.46
70343;BME280;57767;42.068;24.752;2023-04-23T02:03:14;98934.31;;;10.56;80.92
70343;BME280;57767;42.068;24.752;2023-04-23T02:04:17;98934.72;;;10.59;80.55
70343;BME280;57767;42.068;24.752;2023-04-23T02:05:19;98935.50;;;10.66;80.07
70343;BME280;57767;42.068;24.752;2023-04-23T02:06:21;98921.13;;;10.62;80.66
70343;BME280;57767;42.068;24.752;2023-04-23T02:07:23;98923.97;;;10.61;79.96
70343;BME280;57767;42.068;24.752;2023-04-23T02:08:26;98940.59;;;10.68;80.07
70343;BME280;57767;42.068;24.752;2023-04-23T02:09:28;98924.75;;;10.68;80.14
70343;BME280;57767;42.068;24.752;2023-04-23T02:10:30;98926.13;;;10.77;79.53
70343;BME280;57767;42.068;24.752;2023-04-23T02:11:32;98935.88;;;10.83;79.61
70343;BME280;57767;42.068;24.752;2023-04-23T02:12:35;98919.84;;;10.85;79.41
70343;BME280;57767;42.068;24.752;2023-04-23T02:13:37;98927.31;;;10.94;79.21
70343;BME280;57767;42.068;24.752;2023-04-23T02:14:39;98929.16;;;11.00;79.23
70343;BME280;57767;42.068;24.752;2023-04-23T02:15:42;98919.41;;;10.94;79.45
70343;BME280;57767;42.068;24.752;2023-04-23T02:16:44;98927.88;;;11.03;79.47
70343;BME280;57767;42.068;24.752;2023-04-23T02:17:46;98928.13;;;11.01;79.19
70343;BME280;57767;42.068;24.752;2023-04-23T02:18:47;98927.47;;;11.06;78.82
70343;BME280;57767;42.068;24.752;2023-04-23T02:19:49;98924.44;;;11.09;78.82
70343;BME280;57767;42.068;24.752;2023-04-23T02:20:51;98927.47;;;11.12;78.98
70343;BME280;57767;42.068;24.752;2023-04-23T02:21:52;98925.81;;;11.18;78.62
70343;BME280;57767;42.068;24.752;2023-04-23T02:22:54;98921.75;;;11.16;78.17
70343;BME280;57767;42.068;24.752;2023-04-23T02:23:57;98919.28;;;11.21;78.06
70343;BME280;57767;42.068;24.752;2023-04-23T02:24:59;98923.16;;;11.25;77.94
70343;BME280;57767;42.068;24.752;2023-04-23T02:26:00;98929.81;;;11.34;77.49
70343;BME280;57767;42.068;24.752;2023-04-23T02:27:02;98924.09;;;11.37;77.89
70343;BME280;57767;42.068;24.752;2023-04-23T02:28:05;98930.38;;;11.42;77.85
70343;BME280;57767;42.068;24.752;2023-04-23T02:29:08;98924.88;;;11.44;77.90
70343;BME280;57767;42.068;24.752;2023-04-23T02:30:10;98933.00;;;11.49;77.91
70343;BME280;57767;42.068;24.752;2023-04-23T02:31:12;98924.03;;;11.50;77.06
70343;BME280;57767;42.068;24.752;2023-04-23T02:32:14;98925.06;;;11.49;76.71
70343;BME280;57767;42.068;24.752;2023-04-23T02:33:16;98932.72;;;11.57;76.80
70343;BME280;57767;42.068;24.752;2023-04-23T02:34:18;98932.91;;;11.62;76.91
70343;BME280;57767;42.068;24.752;2023-04-23T02:35:19;98928.22;;;11.64;76.57
70343;BME280;57767;42.068;24.752;2023-04-23T02:36:21;98941.81;;;11.68;76.46
70343;BME280;57767;42.068;24.752;2023-04-23T02:37:23;98931.09;;;11.56;75.45
70343;BME280;57767;42.068;24.752;2023-04-23T02:38:25;98938.63;;;11.59;75.36
70343;BME280;57767;42.068;24.752;2023-04-23T02:39:26;98923.84;;;11.52;75.28
70343;BME280;57767;42.068;24.752;2023-04-23T02:40:28;98936.78;;;11.60;75.29
70343;BME280;57767;42.068;24.752;2023-04-23T02:41:30;98941.66;;;11.63;74.50
70343;BME280;57767;42.068;24.752;2023-04-23T02:42:32;98939.84;;;11.63;74.79
70343;BME280;57767;42.068;24.752;2023-04-23T02:43:34;98932.31;;;11.60;74.48
70343;BME280;57767;42.068;24.752;2023-04-23T02:44:36;98937.81;;;11.59;74.25
70343;BME280;57767;42.068;24.752;2023-04-23T02:45:37;98947.38;;;11.60;74.19
70343;BME280;57767;42.068;24.752;2023-04-23T02:46:39;98945.53;;;11.60;73.82
70343;BME280;57767;42.068;24.752;2023-04-23T02:47:41;98940.47;;;11.59;73.85
70343;BME280;57767;42.068;24.752;2023-04-23T02:48:43;98939.66;;;11.58;73.88
70343;BME280;57767;42.068;24.752;2023-04-23T02:49:44;98941.28;;;11.59;74.46
70343;BME280;57767;42.068;24.752;2023-04-23T02:50:46;98948.78;;;11.62;74.00
70343;BME280;57767;42.068;24.752;2023-04-23T02:51:48;98944.69;;;11.66;73.48
70343;BME280;57767;42.068;24.752;2023-04-23T02:52:50;98941.22;;;11.66;73.11
70343;BME280;57767;42.068;24.752;2023-04-23T02:53:52;98943.25;;;11.70;73.55
70343;BME280;57767;42.068;24.752;2023-04-23T02:54:53;98948.09;;;11.73;73.33
70343;BME280;57767;42.068;24.752;2023-04-23T02:55:55;98940.59;;;11.70;72.95
70343;BME280;57767;42.068;24.752;2023-04-23T02:56:57;98943.63;;;11.74;73.01
70343;BME280;57767;42.068;24.752;2023-04-23T02:57:59;98944.66;;;11.73;73.09
70343;BME280;57767;42.068;24.752;2023-04-23T02:59:01;98944.66;;;11.73;72.69
70343;BME280;57767;42.068;24.752;2023-04-23T03:00:03;98946.69;;;11.77;72.51
70343;BME280;57767;42.068;24.752;2023-04-23T03:01:07;98939.16;;;11.74;72.50
70343;BME280;57767;42.068;24.752;2023-04-23T03:02:09;98951.34;;;11.82;72.95
70343;BME280;57767;42.068;24.752;2023-04-23T03:03:11;98952.97;;;11.83;73.01
70343;BME280;57767;42.068;24.752;2023-04-23T03:04:13;98956.22;;;11.85;72.68
70343;BME280;57767;42.068;24.752;2023-04-23T03:05:15;98945.44;;;11.80;73.04
70343;BME280;57767;42.068;24.752;2023-04-23T03:06:17;98952.31;;;11.88;72.81
70343;BME280;57767;42.068;24.752;2023-04-23T03:07:19;98951.31;;;11.89;72.75
70343;BME280;57767;42.068;24.752;2023-04-23T03:08:21;98956.59;;;11.89;72.22
70343;BME280;57767;42.068;24.752;2023-04-23T03:09:22;98952.31;;;11.88;72.53
70343;BME280;57767;42.068;24.752;2023-04-23T03:10:24;98947.25;;;11.86;72.04
70343;BME280;57767;42.068;24.752;2023-04-23T03:11:26;98954.16;;;11.87;72.12
70343;BME280;57767;42.068;24.752;2023-04-23T03:12:28;98948.66;;;11.89;72.54
70343;BME280;57767;42.068;24.752;2023-04-23T03:13:29;98954.16;;;11.87;72.33
70343;BME280;57767;42.068;24.752;2023-04-23T03:14:34;98952.97;;;11.83;72.65
70343;BME280;57767;42.068;24.752;2023-04-23T03:15:36;98956.03;;;11.80;72.49
70343;BME280;57767;42.068;24.752;2023-04-23T03:16:38;98952.16;;;11.82;72.36
70343;BME280;57767;42.068;24.752;2023-04-23T03:17:39;98954.19;;;11.80;72.37
70343;BME280;57767;42.068;24.752;2023-04-23T03:18:41;98952.56;;;11.79;72.37
70343;BME280;57767;42.068;24.752;2023-04-23T03:19:43;98958.88;;;11.78;72.23
70343;BME280;57767;42.068;24.752;2023-04-23T03:20:45;98951.75;;;11.79;72.87
70343;BME280;57767;42.068;24.752;2023-04-23T03:21:47;98953.19;;;11.75;72.13
70343;BME280;57767;42.068;24.752;2023-04-23T03:22:48;98959.94;;;11.77;72.63
70343;BME280;57767;42.068;24.752;2023-04-23T03:23:50;98963.59;;;11.76;72.53
70343;BME280;57767;42.068;24.752;2023-04-23T03:24:52;98950.16;;;11.71;72.92
70343;BME280;57767;42.068;24.752;2023-04-23T03:25:54;98957.28;;;11.77;72.69
70343;BME280;57767;42.068;24.752;2023-04-23T03:26:56;98961.75;;;11.77;73.11
70343;BME280;57767;42.068;24.752;2023-04-23T03:27:58;98961.75;;;11.77;72.49
70343;BME280;57767;42.068;24.752;2023-04-23T03:29:00;98964.16;;;11.78;72.25
70343;BME280;57767;42.068;24.752;2023-04-23T03:30:02;98957.50;;;11.76;72.54
70343;BME280;57767;42.068;24.752;2023-04-23T03:31:04;98964.16;;;11.78;72.57
70343;BME280;57767;42.068;24.752;2023-04-23T03:32:06;98952.56;;;11.79;72.85
70343;BME280;57767;42.068;24.752;2023-04-23T03:33:08;98965.78;;;11.79;72.45
70343;BME280;57767;42.068;24.752;2023-04-23T03:34:10;98966.25;;;11.76;72.84
70343;BME280;57767;42.068;24.752;2023-04-23T03:35:11;98966.25;;;11.76;72.54
70343;BME280;57767;42.068;24.752;2023-04-23T03:36:13;98964.63;;;11.75;72.87
70343;BME280;57767;42.068;24.752;2023-04-23T03:37:16;98965.59;;;11.74;72.97
70343;BME280;57767;42.068;24.752;2023-04-23T03:38:17;98965.44;;;11.76;72.65
70343;BME280;57767;42.068;24.752;2023-04-23T03:39:19;98968.25;;;11.74;72.05
70343;BME280;57767;42.068;24.752;2023-04-23T03:40:21;98985.34;;;11.78;72.58
70343;BME280;57767;42.068;24.752;2023-04-23T03:41:23;98972.56;;;11.75;72.26
70343;BME280;57767;42.068;24.752;2023-04-23T03:42:25;98978.22;;;11.79;72.55
70343;BME280;57767;42.068;24.752;2023-04-23T03:43:27;98977.41;;;11.78;72.49
70343;BME280;57767;42.068;24.752;2023-04-23T03:44:28;98977.19;;;11.80;72.75
70343;BME280;57767;42.068;24.752;2023-04-23T03:45:31;98980.03;;;11.78;72.67
70343;BME280;57767;42.068;24.752;2023-04-23T03:46:33;98978.81;;;11.81;72.70
70343;BME280;57767;42.068;24.752;2023-04-23T03:47:34;98978.81;;;11.81;72.88
70343;BME280;57767;42.068;24.752;2023-04-23T03:48:37;98980.22;;;11.83;72.92
70343;BME280;57767;42.068;24.752;2023-04-23T03:49:39;98982.47;;;11.87;73.04
70343;BME280;57767;42.068;24.752;2023-04-23T03:50:40;98981.22;;;11.89;71.86
70343;BME280;57767;42.068;24.752;2023-04-23T03:51:42;98980.41;;;11.89;72.14
70343;BME280;57767;42.068;24.752;2023-04-23T03:52:44;98974.72;;;11.85;72.31
70343;BME280;57767;42.068;24.752;2023-04-23T03:53:46;98979.97;;;11.92;71.80
70343;BME280;57767;42.068;24.752;2023-04-23T03:54:47;98979.97;;;11.92;71.60
70343;BME280;57767;42.068;24.752;2023-04-23T03:55:49;98976.75;;;11.90;71.97
70343;BME280;57767;42.068;24.752;2023-04-23T03:56:51;98990.94;;;11.95;71.10
70343;BME280;57767;42.068;24.752;2023-04-23T03:57:53;98981.38;;;11.94;71.33
70343;BME280;57767;42.068;24.752;2023-04-23T03:58:54;98980.97;;;11.97;72.04
70343;BME280;57767;42.068;24.752;2023-04-23T03:59:56;98990.91;;;12.02;71.91
70343;BME280;57767;42.068;24.752;2023-04-23T04:00:58;98987.25;;;12.03;71.87
70343;BME280;57767;42.068;24.752;2023-04-23T04:02:00;98978.69;;;12.01;71.87
70343;BME280;57767;42.068;24.752;2023-04-23T04:03:04;98989.22;;;12.07;71.91
70343;BME280;57767;42.068;24.752;2023-04-23T04:04:06;98983.72;;;12.09;71.95
70343;BME280;57767;42.068;24.752;2023-04-23T04:05:09;98989.63;;;12.11;71.52
70343;BME280;57767;42.068;24.752;2023-04-23T04:06:14;98991.88;;;12.07;71.48
70343;BME280;57767;42.068;24.752;2023-04-23T04:07:16;98993.22;;;12.16;72.00
70343;BME280;57767;42.068;24.752;2023-04-23T04:08:18;98994.44;;;12.20;72.20
70343;BME280;57767;42.068;24.752;2023-04-23T04:09:20;98995.63;;;12.25;72.30
70343;BME280;57767;42.068;24.752;2023-04-23T04:10:22;98995.22;;;12.28;72.12
70343;BME280;57767;42.068;24.752;2023-04-23T04:11:24;98993.69;;;12.38;71.70
70343;BME280;57767;42.068;24.752;2023-04-23T04:12:26;99004.00;;;12.46;71.60
70343;BME280;57767;42.068;24.752;2023-04-23T04:13:28;99006.03;;;12.51;71.53
70343;BME280;57767;42.068;24.752;2023-04-23T04:14:31;98994.41;;;12.52;71.50
70343;BME280;57767;42.068;24.752;2023-04-23T04:15:33;98998.81;;;12.58;70.38
70343;BME280;57767;42.068;24.752;2023-04-23T04:16:34;99005.03;;;12.70;70.83
70343;BME280;57767;42.068;24.752;2023-04-23T04:17:36;99002.75;;;12.74;70.62
70343;BME280;57767;42.068;24.752;2023-04-23T04:18:38;98999.22;;;12.80;69.88
70343;BME280;57767;42.068;24.752;2023-04-23T04:19:41;99011.63;;;12.86;70.05
70343;BME280;57767;42.068;24.752;2023-04-23T04:20:43;99003.25;;;12.89;70.00
70343;BME280;57767;42.068;24.752;2023-04-23T04:21:46;99007.66;;;12.95;69.56
70343;BME280;57767;42.068;24.752;2023-04-23T04:22:48;99014.31;;;13.04;70.08
70343;BME280;57767;42.068;24.752;2023-04-23T04:23:50;99012.38;;;13.11;70.09
70343;BME280;57767;42.068;24.752;2023-04-23T04:24:51;99017.63;;;13.18;70.15
70343;BME280;57767;42.068;24.752;2023-04-23T04:25:53;99013.91;;;13.25;70.26
70343;BME280;57767;42.068;24.752;2023-04-23T04:26:57;99017.84;;;13.35;70.19
70343;BME280;57767;42.068;24.752;2023-04-23T04:28:00;99013.31;;;13.42;68.82
70343;BME280;57767;42.068;24.752;2023-04-23T04:29:02;99016.69;;;13.49;68.56
70343;BME280;57767;42.068;24.752;2023-04-23T04:30:04;99020.06;;;13.56;68.80
70343;BME280;57767;42.068;24.752;2023-04-23T04:31:07;99012.63;;;13.65;67.93
70343;BME280;57767;42.068;24.752;2023-04-23T04:32:10;99010.91;;;13.70;67.95
70343;BME280;57767;42.068;24.752;2023-04-23T04:33:15;99016.84;;;13.84;68.13
70343;BME280;57767;42.068;24.752;2023-04-23T04:34:17;99023.00;;;13.96;68.00
70343;BME280;57767;42.068;24.752;2023-04-23T04:35:19;99006.41;;;14.01;66.98
70343;BME280;57767;42.068;24.752;2023-04-23T04:36:20;99020.91;;;14.16;66.71
70343;BME280;57767;42.068;24.752;2023-04-23T04:37:23;99015.59;;;14.28;65.97
70343;BME280;57767;42.068;24.752;2023-04-23T04:38:25;99012.63;;;14.36;64.80
70343;BME280;57767;42.068;24.752;2023-04-23T04:39:27;99014.19;;;14.44;64.72
70343;BME280;57767;42.068;24.752;2023-04-23T04:40:28;99019.97;;;14.52;64.54
70343;BME280;57767;42.068;24.752;2023-04-23T04:41:31;99017.41;;;14.57;63.94
70343;BME280;57767;42.068;24.752;2023-04-23T04:42:32;99009.91;;;14.66;63.55
70343;BME280;57767;42.068;24.752;2023-04-23T04:43:34;99019.97;;;14.76;62.73
70343;BME280;57767;42.068;24.752;2023-04-23T04:44:36;99015.81;;;14.80;62.09
70343;BME280;57767;42.068;24.752;2023-04-23T04:45:38;99024.47;;;14.87;61.63
70343;BME280;57767;42.068;24.752;2023-04-23T04:46:40;98991.78;;;14.75;61.33
70343;BME280;57767;42.068;24.752;2023-04-23T04:47:43;99022.03;;;14.97;60.95
70343;BME280;57767;42.068;24.752;2023-04-23T04:48:46;99017.88;;;15.01;61.38
70343;BME280;57767;42.068;24.752;2023-04-23T04:49:47;99024.94;;;15.07;61.46
70343;BME280;57767;42.068;24.752;2023-04-23T04:50:49;99013.25;;;15.08;61.57
70343;BME280;57767;42.068;24.752;2023-04-23T04:51:51;99027.72;;;15.12;62.21
70343;BME280;57767;42.068;24.752;2023-04-23T04:52:54;99025.41;;;15.16;63.43
70343;BME280;57767;42.068;24.752;2023-04-23T04:53:56;99031.97;;;15.25;64.23
70343;BME280;57767;42.068;24.752;2023-04-23T04:54:58;99026.06;;;15.34;64.50
70343;BME280;57767;42.068;24.752;2023-04-23T04:56:00;99028.13;;;15.44;64.14
70343;BME280;57767;42.068;24.752;2023-04-23T04:57:01;99028.13;;;15.56;62.99
70343;BME280;57767;42.068;24.752;2023-04-23T04:58:03;99034.94;;;15.63;61.40
70343;BME280;57767;42.068;24.752;2023-04-23T04:59:05;99029.72;;;15.68;61.93
70343;BME280;57767;42.068;24.752;2023-04-23T05:00:22;99034.50;;;15.83;61.46
70343;BME280;57767;42.068;24.752;2023-04-23T05:01:24;99036.81;;;15.91;61.06
70343;BME280;57767;42.068;24.752;2023-04-23T05:02:27;99041.75;;;15.99;61.43
70343;BME280;57767;42.068;24.752;2023-04-23T05:03:30;99033.84;;;16.04;61.18
70343;BME280;57767;42.068;24.752;2023-04-23T05:04:32;99033.13;;;16.09;60.22
70343;BME280;57767;42.068;24.752;2023-04-23T05:05:34;99043.41;;;16.17;60.88
70343;BME280;57767;42.068;24.752;2023-04-23T05:06:36;99032.53;;;16.19;60.15
70343;BME280;57767;42.068;24.752;2023-04-23T05:07:38;99042.31;;;16.30;59.70
70343;BME280;57767;42.068;24.752;2023-04-23T05:08:39;99039.06;;;16.28;59.07
70343;BME280;57767;42.068;24.752;2023-04-23T05:09:43;99048.91;;;16.27;59.81
70343;BME280;57767;42.068;24.752;2023-04-23T05:10:45;99042.13;;;16.20;58.64
70343;BME280;57767;42.068;24.752;2023-04-23T05:11:47;99049.84;;;16.21;58.93
70343;BME280;57767;42.068;24.752;2023-04-23T05:12:49;99046.97;;;16.23;59.02
70343;BME280;57767;42.068;24.752;2023-04-23T05:13:52;99051.47;;;16.22;58.55
70343;BME280;57767;42.068;24.752;2023-04-23T05:14:54;99050.66;;;16.22;58.64
70343;BME280;57767;42.068;24.752;2023-04-23T05:15:55;99052.28;;;16.23;58.59
70343;BME280;57767;42.068;24.752;2023-04-23T05:16:57;99046.06;;;16.17;59.35
70343;BME280;57767;42.068;24.752;2023-04-23T05:18:01;99049.22;;;16.14;59.56
70343;BME280;57767;42.068;24.752;2023-04-23T05:19:03;99052.56;;;16.09;58.67
70343;BME280;57767;42.068;24.752;2023-04-23T05:20:05;99055.81;;;16.11;58.74
70343;BME280;57767;42.068;24.752;2023-04-23T05:21:10;99060.03;;;16.07;58.55
70343;BME280;57767;42.068;24.752;2023-04-23T05:22:13;99049.50;;;16.01;59.17
70343;BME280;57767;42.068;24.752;2023-04-23T05:23:15;99057.88;;;15.93;58.99
70343;BME280;57767;42.068;24.752;2023-04-23T05:24:17;99053.13;;;15.83;59.79
70343;BME280;57767;42.068;24.752;2023-04-23T05:25:18;99058.16;;;15.80;60.03
70343;BME280;57767;42.068;24.752;2023-04-23T05:26:20;99061.97;;;15.72;60.06